Time;durP1;ratioP1;P1;durP2;ratioP2;P2;SDS_P1;SDS_P2;PMS_P1;PMS_P2;Temp;Humidity;BMP_temperature;BMP_pressure;BME280_temperature;BME280_humidity;BME280_pressure;Samples;Min_cycle;Max_cycle;Signal;HPM_P1;HPM_P2
2023/10/10 00:00:27;;;;;;;4.10;2.22;;;;;;;21.57;55.70;100944.69;12735225;22;97635;-79
2023/10/10 00:05:36;;;;;;;3.38;2.20;;;;;;;21.49;56.59;100942.56;12734953;22;97108;-80
2023/10/10 00:10:50;;;;;;;4.03;2.55;;;;;;;21.38;56.68;100950.53;12734851;22;96631;-80
2023/10/10 00:15:57;;;;;;;3.15;2.10;;;;;;;21.47;55.36;100944.50;12734466;22;96682;-79
2023/10/10 00:21:08;;;;;;;3.85;2.38;;;;;;;21.73;52.66;100939.03;12734590;22;96615;-79
2023/10/10 00:26:15;;;;;;;3.85;2.70;;;;;;;21.60;54.31;100943.59;12735803;22;97224;-80
2023/10/10 00:31:18;;;;;;;2.60;2.13;;;;;;;21.42;55.16;100943.97;12734191;22;96623;-79
2023/10/10 00:36:31;;;;;;;4.35;2.72;;;;;;;21.27;56.30;100944.25;12734771;22;97191;-79
2023/10/10 00:41:50;;;;;;;4.00;2.80;;;;;;;21.13;57.75;100944.34;12733275;22;96560;-79
2023/10/10 00:46:57;;;;;;;3.15;2.40;;;;;;;21.00;57.87;100946.22;12734191;22;97313;-80
2023/10/10 00:52:06;;;;;;;5.47;2.58;;;;;;;21.01;57.38;100938.06;12734002;22;96549;-80
2023/10/10 00:57:13;;;;;;;4.50;2.50;;;;;;;21.07;56.82;100932.25;12734799;22;96777;-80
2023/10/10 01:02:20;;;;;;;3.42;2.50;;;;;;;21.14;55.60;100930.00;12734488;22;97309;-82
2023/10/10 01:07:26;;;;;;;3.92;2.42;;;;;;;21.01;56.36;100935.41;12734293;22;96701;-80
2023/10/10 01:12:35;;;;;;;4.30;2.85;;;;;;;20.93;57.17;100928.88;12734040;22;97324;-79
2023/10/10 01:17:39;;;;;;;3.97;2.60;;;;;;;20.82;58.18;100935.00;12735349;22;96592;-80
2023/10/10 01:22:47;;;;;;;4.32;3.17;;;;;;;20.67;59.17;100925.34;12734046;22;96957;-81
2023/10/10 01:27:54;;;;;;;3.78;2.63;;;;;;;20.65;59.16;100931.78;12734262;22;97037;-79
2023/10/10 01:33:00;;;;;;;5.63;2.63;;;;;;;20.63;59.23;100937.25;12732425;22;97288;-79
2023/10/10 01:38:13;;;;;;;4.55;3.00;;;;;;;20.59;59.50;100925.06;12734139;22;96674;-79
2023/10/10 01:43:17;;;;;;;3.72;2.67;;;;;;;20.65;59.18;100921.09;12734222;22;97343;-80
2023/10/10 01:48:23;;;;;;;4.32;2.80;;;;;;;20.82;57.17;100923.44;12734649;22;96894;-80
2023/10/10 01:53:30;;;;;;;3.75;2.30;;;;;;;20.95;55.71;100918.91;12733577;22;97468;-81
2023/10/10 01:58:36;;;;;;;3.67;2.40;;;;;;;21.15;54.32;100923.69;12733859;22;96749;-82
2023/10/10 02:03:40;;;;;;;3.35;2.50;;;;;;;21.23;53.52;100918.66;12733560;22;97074;-82
2023/10/10 02:08:48;;;;;;;3.10;2.20;;;;;;;21.32;52.88;100913.50;12734376;22;96599;-82
2023/10/10 02:14:15;;;;;;;3.78;2.30;;;;;;;21.41;52.61;100911.97;12731100;22;96683;-82
2023/10/10 02:19:25;;;;;;;4.13;2.28;;;;;;;21.25;53.47;100906.03;12733503;22;96633;-79
2023/10/10 02:24:48;;;;;;;3.47;2.33;;;;;;;21.01;55.21;100905.97;12731838;22;96838;-79
2023/10/10 02:29:53;;;;;;;4.90;2.67;;;;;;;20.78;56.83;100904.06;12733003;22;97324;-79
2023/10/10 02:35:15;;;;;;;3.40;2.33;;;;;;;20.81;55.42;100901.16;12732718;22;97457;-79
2023/10/10 02:40:30;;;;;;;3.25;2.47;;;;;;;20.70;56.83;100890.41;12732998;22;97193;-79
2023/10/10 02:45:35;;;;;;;3.53;2.40;;;;;;;20.88;54.30;100883.72;12733938;22;97524;-79
2023/10/10 02:50:41;;;;;;;3.60;2.38;;;;;;;21.08;52.65;100885.81;12735162;22;97237;-82
2023/10/10 02:55:51;;;;;;;2.63;2.00;;;;;;;21.16;52.20;100874.56;12735531;22;96559;-79
2023/10/10 03:00:57;;;;;;;4.22;2.63;;;;;;;20.88;53.75;100875.69;12736258;22;97426;-80
2023/10/10 03:06:06;;;;;;;6.63;2.60;;;;;;;20.58;56.45;100872.53;12735224;22;96574;-79
2023/10/10 03:11:35;;;;;;;3.72;2.65;;;;;;;20.47;56.61;100869.75;12734656;22;97030;-79
2023/10/10 03:16:59;;;;;;;3.53;2.40;;;;;;;20.41;56.72;100878.19;12734385;22;97318;-79
2023/10/10 03:32:59;;;;;;;4.70;2.67;;;;;;;20.87;53.59;100883.81;12715907;22;97374;-78
2023/10/10 03:38:26;;;;;;;3.42;2.38;;;;;;;21.09;52.35;100878.63;12735407;22;97019;-78
2023/10/10 05:25:45;;;;;;;3.58;2.53;;;;;;;20.68;51.72;100905.69;12734321;22;96944;-78
2023/10/10 05:30:48;;;;;;;4.22;2.72;;;;;;;20.65;51.94;100905.91;12733974;22;97072;-79
2023/10/10 05:35:58;;;;;;;5.30;2.75;;;;;;;20.61;51.91;100909.75;12733888;22;96654;-79
2023/10/10 05:41:03;;;;;;;3.88;2.55;;;;;;;20.55;52.16;100917.38;12734077;22;97684;-79
2023/10/10 05:46:06;;;;;;;;;;;;;;;20.41;52.99;100909.44;12734327;22;96767;-79
2023/10/10 05:51:13;;;;;;;3.65;2.50;;;;;;;20.34;52.79;100904.50;12733768;22;96709;-79
2023/10/10 05:56:17;;;;;;;4.28;2.60;;;;;;;20.47;52.54;100904.53;12732446;22;96570;-79
2023/10/10 06:01:23;;;;;;;4.13;2.45;;;;;;;20.35;52.85;100905.38;12733737;22;97222;-79
2023/10/10 06:06:28;;;;;;;4.30;2.75;;;;;;;20.39;52.67;100905.03;12734167;22;96813;-79
2023/10/10 06:11:34;;;;;;;3.47;2.70;;;;;;;20.34;52.67;100901.84;12732641;22;96927;-81
2023/10/10 06:16:38;;;;;;;5.22;3.17;;;;;;;20.28;52.86;100912.94;12733485;22;97316;-82
2023/10/10 06:21:44;;;;;;;4.30;2.90;;;;;;;20.22;53.17;100909.84;12735104;22;96701;-81
2023/10/10 06:26:49;;;;;;;4.45;2.72;;;;;;;20.28;52.82;100914.75;12735431;22;96610;-79
2023/10/10 06:31:52;;;;;;;5.45;3.15;;;;;;;20.27;52.95;100905.88;12735907;22;96785;-79
2023/10/10 06:36:57;;;;;;;4.10;2.80;;;;;;;20.35;52.49;100913.41;12735827;22;97191;-79
2023/10/10 06:42:03;;;;;;;4.93;2.88;;;;;;;20.30;52.58;100908.38;12735294;22;96707;-79
2023/10/10 06:47:10;;;;;;;3.70;2.67;;;;;;;20.29;52.92;100919.13;12733893;22;96602;-82
2023/10/10 06:52:19;;;;;;;4.28;2.60;;;;;;;20.28;52.76;100912.94;12735420;22;97445;-79
2023/10/10 06:57:35;;;;;;;5.28;2.40;;;;;;;20.39;52.47;100920.25;12735620;22;96657;-79
2023/10/10 07:02:41;;;;;;;3.20;2.35;;;;;;;20.44;52.25;100920.78;12735411;22;97304;-79
2023/10/10 07:07:52;;;;;;;3.88;2.58;;;;;;;20.46;52.32;100920.69;12735480;22;96792;-79
2023/10/10 07:12:58;;;;;;;5.10;2.70;;;;;;;20.54;52.35;100937.91;12734869;22;97050;-82
2023/10/10 07:18:13;;;;;;;5.63;2.60;;;;;;;20.53;52.28;100943.34;12735381;22;96587;-82
2023/10/10 07:23:20;;;;;;;4.00;3.30;;;;;;;20.63;52.16;100937.25;12736323;22;97197;-82
2023/10/10 07:28:26;;;;;;;3.85;2.78;;;;;;;20.72;52.17;100944.66;12735065;22;96629;-82
2023/10/10 07:33:40;;;;;;;3.45;2.38;;;;;;;21.66;49.95;100949.34;12734244;22;97253;-82
2023/10/10 07:38:45;;;;;;;;;;;;;;;22.53;48.36;100949.81;12734257;22;97126;-80
2023/10/10 07:43:52;;;;;;;5.37;2.90;;;;;;;23.12;46.43;100954.00;12734762;22;96914;-79
2023/10/10 07:48:57;;;;;;;3.50;2.50;;;;;;;23.61;45.62;100951.75;12735758;22;97270;-80
2023/10/10 07:54:12;;;;;;;3.88;2.53;;;;;;;24.17;45.00;100960.44;12734537;22;96700;-80
2023/10/10 07:59:17;;;;;;;5.05;2.80;;;;;;;24.73;44.03;100961.88;12735600;22;97313;-80
2023/10/10 08:04:22;;;;;;;5.72;2.53;;;;;;;25.56;42.53;100959.78;12734739;22;97199;-80
2023/10/10 08:09:29;;;;;;;6.50;2.92;;;;;;;25.74;41.61;100973.47;12734800;22;96570;-80
2023/10/10 08:14:37;;;;;;;4.28;2.67;;;;;;;26.48;40.64;100962.00;12735396;22;96997;-80
2023/10/10 08:19:43;;;;;;;3.55;2.40;;;;;;;26.64;39.68;100972.19;12734736;22;97520;-80
2023/10/10 08:24:48;;;;;;;3.15;2.28;;;;;;;27.09;38.97;100966.97;12734541;22;96646;-80
2023/10/10 08:29:53;;;;;;;3.25;2.47;;;;;;;27.71;37.97;100964.38;12733104;22;97154;-80
2023/10/10 08:35:04;;;;;;;2.85;2.30;;;;;;;28.00;37.05;100965.00;12734215;22;96624;-80
2023/10/10 08:40:19;;;;;;;3.97;2.70;;;;;;;28.46;36.14;100967.47;12733903;22;97362;-81
2023/10/10 08:45:26;;;;;;;3.97;2.30;;;;;;;28.57;34.98;100958.22;12733557;22;97097;-80
2023/10/10 08:50:32;;;;;;;2.78;2.13;;;;;;;28.58;35.20;100959.94;12734121;22;96671;-80
2023/10/10 08:55:38;;;;;;;3.47;2.72;;;;;;;27.73;36.05;100956.94;12734473;22;96520;-80
2023/10/10 09:00:44;;;;;;;4.35;2.83;;;;;;;26.73;38.21;100965.94;12734086;22;96965;-80
2023/10/10 09:05:51;;;;;;;4.43;3.13;;;;;;;26.26;38.44;100964.13;12735312;22;96802;-80
2023/10/10 09:11:01;;;;;;;4.07;2.60;;;;;;;26.27;38.86;100963.97;12733641;22;96914;-80
2023/10/10 09:16:13;;;;;;;4.40;2.90;;;;;;;26.12;39.25;100961.84;12734059;22;96689;-81
2023/10/10 09:21:24;;;;;;;3.70;2.50;;;;;;;27.32;37.75;100963.69;12732731;22;97184;-81
2023/10/10 09:26:36;;;;;;;4.70;2.38;;;;;;;29.82;34.78;100952.91;12734041;22;96640;-81
2023/10/10 09:31:45;;;;;;;3.07;2.40;;;;;;;31.51;32.62;100960.88;12733739;22;97512;-81
2023/10/10 09:36:57;;;;;;;3.35;2.47;;;;;;;32.60;31.49;100967.78;12733718;22;96733;-81
2023/10/10 09:47:43;;;;;;;3.05;2.40;;;;;;;32.37;29.69;100952.34;12733887;22;96935;-81
2023/10/10 09:52:50;;;;;;;3.30;2.40;;;;;;;32.27;29.78;100951.69;12732973;22;96541;-81
2023/10/10 09:58:05;;;;;;;3.05;2.15;;;;;;;32.11;29.22;100934.66;12734703;22;96728;-81
2023/10/10 10:03:31;;;;;;;2.58;2.00;;;;;;;32.82;27.91;100918.66;12733429;22;96990;-81
2023/10/10 10:08:43;;;;;;;2.47;1.85;;;;;;;31.93;27.50;100925.91;12733455;22;97010;-81
2023/10/10 10:13:57;;;;;;;;;;;;;;;31.78;27.89;100914.94;12732335;22;96797;-81
2023/10/10 10:19:28;;;;;;;2.38;1.90;;;;;;;32.69;27.35;100917.63;12733827;22;96558;-81
2023/10/10 10:24:52;;;;;;;3.00;2.17;;;;;;;32.22;26.79;100910.53;12733146;22;96966;-81
2023/10/10 10:30:08;;;;;;;3.08;2.10;;;;;;;32.30;26.66;100899.56;12733034;22;96982;-81
2023/10/10 10:35:15;;;;;;;3.40;2.20;;;;;;;32.47;25.91;100899.44;12732965;22;96917;-81
2023/10/10 10:40:25;;;;;;;3.63;1.70;;;;;;;32.51;25.66;100906.22;12732515;22;96967;-81
2023/10/10 10:45:35;;;;;;;3.20;2.25;;;;;;;32.51;24.61;100895.31;12732145;22;96642;-81
2023/10/10 10:50:45;;;;;;;4.63;2.03;;;;;;;32.39;24.62;100889.47;12733561;22;97136;-81
2023/10/10 10:56:06;;;;;;;3.10;1.80;;;;;;;32.81;23.92;100886.13;12732373;22;96708;-81
2023/10/10 11:01:16;;;;;;;2.92;1.90;;;;;;;33.04;23.31;100890.44;12732180;22;97293;-81
2023/10/10 11:06:20;;;;;;;3.38;2.10;;;;;;;33.11;22.55;100883.19;12731960;22;97264;-81
2023/10/10 11:11:26;;;;;;;3.60;1.80;;;;;;;33.60;21.88;100872.47;12734894;22;96622;-81
2023/10/10 11:16:56;;;;;;;2.70;1.60;;;;;;;33.55;21.13;100879.56;12735096;22;96653;-81
2023/10/10 11:22:01;;;;;;;1.83;1.52;;;;;;;33.96;21.18;100880.63;12735293;22;97188;-81
2023/10/10 11:27:13;;;;;;;2.15;1.50;;;;;;;33.68;20.80;100866.88;12735405;22;97286;-81
2023/10/10 11:32:27;;;;;;;2.13;1.52;;;;;;;33.83;20.77;100867.69;12734917;22;97323;-81
2023/10/10 11:37:34;;;;;;;1.98;1.30;;;;;;;33.66;20.92;100866.22;12734935;22;96926;-81
2023/10/10 11:42:38;;;;;;;3.03;1.77;;;;;;;35.02;19.71;100853.88;12735601;22;97065;-81
2023/10/10 11:47:53;;;;;;;;;;;;;;;;;;;;;
2023/10/10 11:53:01;;;;;;;2.80;1.35;;;;;;;35.53;18.97;100831.31;12734512;22;96528;-81
2023/10/10 11:58:08;;;;;;;2.17;1.48;;;;;;;34.75;18.73;100830.97;12733501;22;96653;-82
2023/10/10 12:03:19;;;;;;;2.70;1.70;;;;;;;35.85;18.28;100821.44;12734862;22;97063;-82
2023/10/10 12:08:24;;;;;;;2.53;1.60;;;;;;;35.84;18.78;100821.66;12734685;22;97063;-81
2023/10/10 12:13:37;;;;;;;2.35;1.40;;;;;;;36.29;18.53;100809.88;12734355;22;96873;-81
2023/10/10 12:18:49;;;;;;;2.20;1.30;;;;;;;36.64;17.52;100794.81;12734987;22;96835;-82
2023/10/10 12:24:00;;;;;;;3.58;1.75;;;;;;;36.10;18.24;100786.88;12734683;22;96579;-82
2023/10/10 12:29:32;;;;;;;2.88;1.73;;;;;;;36.67;17.23;100775.19;12734415;22;96597;-82
2023/10/10 12:34:59;;;;;;;1.77;1.58;;;;;;;36.14;18.19;100771.72;12735377;22;96969;-82
2023/10/10 12:40:22;;;;;;;2.22;1.42;;;;;;;36.42;17.59;100763.25;12733962;22;96662;-82
2023/10/10 12:45:53;;;;;;;3.80;1.20;;;;;;;36.48;17.09;100744.03;12734375;22;96950;-81
2023/10/10 12:51:23;;;;;;;;;;;;;;;36.38;17.52;100745.50;12733848;22;97114;-82
2023/10/10 12:56:48;;;;;;;2.25;1.30;;;;;;;36.69;17.55;100729.16;12734658;22;96627;-81
2023/10/10 13:02:34;;;;;;;3.58;1.75;;;;;;;37.07;17.82;100721.81;12605643;22;97123;-82
2023/10/10 13:08:14;;;;;;;7.10;2.15;;;;;;;37.34;16.99;100719.72;12731889;22;96532;-81
2023/10/10 13:19:53;;;;;;;1.50;1.10;;;;;;;36.98;17.28;100703.09;12730878;22;96634;-81
2023/10/10 13:25:25;;;;;;;;;;;;;;;;;;;;;
2023/10/10 13:42:06;;;;;;;2.30;1.50;;;;;;;38.08;16.34;100667.50;12726289;22;97487;-81
2023/10/10 13:47:27;;;;;;;4.05;1.60;;;;;;;37.96;17.34;100663.84;12631606;22;96938;-82
2023/10/10 13:52:39;;;;;;;2.33;1.58;;;;;;;37.92;16.58;100654.41;12733290;22;96790;-81
2023/10/10 13:57:56;;;;;;;1.92;1.23;;;;;;;37.89;16.40;100654.81;12733738;22;96713;-81
2023/10/10 14:03:45;;;;;;;;;;;;;;;;;;;;;
2023/10/10 14:15:22;;;;;;;1.58;1.08;;;;;;;37.72;16.38;100644.41;12732818;22;96607;-81
2023/10/10 14:20:53;;;;;;;2.72;1.27;;;;;;;38.82;15.30;100641.41;12733237;22;97294;-81
2023/10/10 14:32:18;;;;;;;2.92;1.50;;;;;;;37.46;17.08;100639.19;12732152;22;97138;-82
2023/10/10 14:38:23;;;;;;;1.65;1.20;;;;;;;37.86;16.29;100634.16;12733119;22;96932;-81
2023/10/10 14:43:54;;;;;;;1.90;1.38;;;;;;;37.77;17.26;100630.84;12733983;22;97299;-80
2023/10/10 14:49:16;;;;;;;3.23;1.47;;;;;;;38.65;16.44;100623.00;12734735;22;96928;-80
2023/10/10 14:54:48;;;;;;;1.92;1.23;;;;;;;37.84;16.35;100625.28;12735487;22;97038;-81
2023/10/10 15:00:17;;;;;;;2.88;1.45;;;;;;;37.66;17.38;100614.28;12735641;22;97182;-81
2023/10/10 15:05:32;;;;;;;1.98;1.48;;;;;;;37.17;18.16;100609.63;12735125;22;96784;-81
2023/10/10 15:10:46;;;;;;;2.00;1.50;;;;;;;37.55;17.36;100602.13;12734515;22;96616;-81
2023/10/10 15:16:08;;;;;;;1.60;1.20;;;;;;;37.08;18.27;100605.47;12734120;22;96560;-81
2023/10/10 15:21:32;;;;;;;2.85;1.40;;;;;;;36.47;18.33;100604.38;12736315;22;96650;-82
2023/10/10 15:26:47;;;;;;;4.03;1.30;;;;;;;36.11;18.69;100595.91;12735316;22;97215;-82
2023/10/10 15:32:03;;;;;;;2.42;1.65;;;;;;;35.31;19.92;100588.88;12734998;22;96474;-80
2023/10/10 15:37:22;;;;;;;2.45;1.27;;;;;;;35.60;19.47;100588.44;12733916;22;96933;-81
2023/10/10 15:42:35;;;;;;;2.30;1.80;;;;;;;35.81;19.37;100589.25;12734936;22;96712;-80
2023/10/10 15:47:53;;;;;;;3.25;1.75;;;;;;;34.51;20.72;100579.97;12735036;22;97123;-80
2023/10/10 15:53:05;;;;;;;1.90;1.58;;;;;;;34.95;21.12;100580.28;12734272;22;97288;-80
2023/10/10 15:58:17;;;;;;;2.78;1.48;;;;;;;35.51;20.46;100575.22;12734952;22;96667;-80
2023/10/10 16:03:38;;;;;;;2.35;1.50;;;;;;;35.39;21.07;100577.72;12734905;22;97026;-80
2023/10/10 16:08:58;;;;;;;2.25;1.45;;;;;;;35.11;22.58;100587.22;12735316;22;96953;-80
2023/10/10 16:14:19;;;;;;;3.25;1.70;;;;;;;34.46;24.44;100580.59;12735264;22;96651;-80
2023/10/10 16:19:36;;;;;;;2.70;1.87;;;;;;;34.46;25.05;100588.78;12734646;22;96647;-80
2023/10/10 16:24:52;;;;;;;1.77;1.48;;;;;;;33.98;26.50;100586.28;12734331;22;97240;-80
2023/10/10 16:30:05;;;;;;;3.55;1.58;;;;;;;33.38;28.48;100593.19;12733414;22;97116;-80
2023/10/10 16:35:15;;;;;;;2.75;1.50;;;;;;;33.00;29.26;100593.75;12734314;22;97012;-80
2023/10/10 16:40:21;;;;;;;2.33;1.80;;;;;;;32.71;30.56;100604.75;12734532;22;97284;-80
2023/10/10 16:45:34;;;;;;;3.50;1.90;;;;;;;32.36;31.54;100598.28;12734617;22;96920;-80
2023/10/10 16:50:43;;;;;;;3.03;1.73;;;;;;;31.95;31.79;100599.84;12734761;22;96963;-80
2023/10/10 16:55:48;;;;;;;2.95;1.83;;;;;;;31.46;32.45;100610.41;12733926;22;96840;-80
2023/10/10 17:00:53;;;;;;;2.38;1.70;;;;;;;30.86;34.09;100615.03;12734516;22;96924;-80
2023/10/10 17:05:59;;;;;;;3.03;1.90;;;;;;;30.47;34.98;100626.00;12734452;22;96788;-80
2023/10/10 17:11:10;;;;;;;3.15;1.98;;;;;;;30.28;35.21;100640.03;12732639;22;96741;-80
2023/10/10 17:16:25;;;;;;;3.20;2.20;;;;;;;30.13;35.05;100648.06;12733575;22;96836;-79
2023/10/10 17:21:34;;;;;;;3.35;2.22;;;;;;;30.00;34.86;100653.19;12733063;22;96572;-80
2023/10/10 17:26:43;;;;;;;4.03;2.28;;;;;;;29.91;34.79;100656.06;12734327;22;97159;-80
2023/10/10 17:31:55;;;;;;;3.78;2.38;;;;;;;29.88;34.87;100668.13;12734236;22;97105;-79
2023/10/10 17:36:59;;;;;;;3.65;2.78;;;;;;;29.69;35.13;100664.97;12734157;22;96708;-79
2023/10/10 17:42:06;;;;;;;4.88;2.63;;;;;;;29.42;35.83;100654.44;12733442;22;96956;-79
2023/10/10 17:47:19;;;;;;;4.35;2.28;;;;;;;29.29;36.18;100668.56;12733977;22;96877;-79
2023/10/10 17:52:28;;;;;;;3.65;2.63;;;;;;;29.12;36.58;100673.09;12733542;22;96572;-79
2023/10/10 17:57:38;;;;;;;3.45;2.40;;;;;;;28.87;37.27;100676.78;12734732;22;96648;-79
2023/10/10 18:02:55;;;;;;;3.58;2.35;;;;;;;28.74;37.60;100678.31;12733550;22;96564;-80
2023/10/10 18:07:59;;;;;;;3.50;2.63;;;;;;;28.47;37.97;100689.38;12733374;22;96638;-79
2023/10/10 18:13:05;;;;;;;3.00;2.28;;;;;;;28.38;37.90;100690.38;12731414;22;96898;-79
2023/10/10 18:18:12;;;;;;;4.32;2.50;;;;;;;28.16;38.61;100704.44;12733122;22;96702;-80
2023/10/10 18:23:18;;;;;;;3.03;2.38;;;;;;;28.16;38.39;100708.03;12733013;22;96947;-79
2023/10/10 18:28:28;;;;;;;3.42;2.45;;;;;;;27.94;39.57;100705.88;12733344;22;96785;-79
2023/10/10 18:33:38;;;;;;;3.65;2.65;;;;;;;27.75;39.48;100706.94;12732663;22;96796;-79
2023/10/10 18:38:45;;;;;;;3.67;2.47;;;;;;;27.63;39.46;100720.88;12733194;22;97047;-79
2023/10/10 18:43:49;;;;;;;3.83;2.70;;;;;;;27.44;40.31;100729.16;12732680;22;96851;-79
2023/10/10 18:48:57;;;;;;;3.60;2.50;;;;;;;27.34;40.55;100729.25;12733600;22;96864;-79
2023/10/10 18:54:07;;;;;;;4.05;2.30;;;;;;;27.09;40.68;100738.13;12732455;22;97150;-79
2023/10/10 18:59:13;;;;;;;4.70;2.50;;;;;;;26.95;40.91;100739.50;12732746;22;96866;-79
2023/10/10 19:04:21;;;;;;;3.83;2.58;;;;;;;26.93;40.93;100733.41;12731324;22;96637;-79
2023/10/10 19:09:25;;;;;;;3.50;2.72;;;;;;;26.73;41.02;100747.19;12732193;22;97226;-79
2023/10/10 19:14:44;;;;;;;;;;;;;;;;;;;;;
2023/10/10 19:19:52;;;;;;;4.15;2.50;;;;;;;26.60;41.49;100754.78;12730484;22;96665;-79
2023/10/10 19:24:56;;;;;;;4.47;2.50;;;;;;;26.55;41.72;100751.69;12732170;22;97190;-79
2023/10/10 19:30:03;;;;;;;3.22;2.20;;;;;;;26.70;41.23;100755.56;12734715;22;97170;-79
2023/10/10 19:35:12;;;;;;;5.30;2.72;;;;;;;26.44;41.81;100759.97;12734931;22;96696;-79
2023/10/10 19:40:19;;;;;;;3.33;2.40;;;;;;;26.19;42.29;100766.88;12735640;22;96617;-79
2023/10/10 19:45:26;;;;;;;3.90;2.88;;;;;;;26.18;42.43;100775.94;12734857;22;96501;-79
2023/10/10 19:50:31;;;;;;;5.05;2.80;;;;;;;26.01;42.82;100786.66;12734954;22;96699;-79
2023/10/10 19:55:37;;;;;;;3.53;2.20;;;;;;;25.88;42.77;100785.13;12733383;22;97049;-79
2023/10/10 20:00:45;;;;;;;4.22;2.70;;;;;;;25.93;42.73;100787.41;12735365;22;97500;-79
2023/10/10 20:05:52;;;;;;;3.90;2.47;;;;;;;25.95;42.76;100784.56;12734354;22;96615;-79
2023/10/10 20:10:57;;;;;;;4.88;2.63;;;;;;;25.65;43.11;100780.19;12734231;22;96710;-79
2023/10/10 20:16:03;;;;;;;3.78;2.80;;;;;;;25.61;43.46;100789.53;12734376;22;97144;-79
2023/10/10 20:21:07;;;;;;;4.53;3.00;;;;;;;25.58;43.77;100788.00;12734489;22;96654;-79
2023/10/10 20:26:14;;;;;;;4.43;3.08;;;;;;;25.39;44.69;100782.59;12734019;22;97222;-79
2023/10/10 20:31:21;;;;;;;5.25;3.03;;;;;;;25.18;45.11;100783.72;12735440;22;96830;-79
2023/10/10 20:36:26;;;;;;;3.88;2.80;;;;;;;25.22;44.58;100777.06;12734796;22;97138;-79
2023/10/10 20:41:32;;;;;;;4.47;3.22;;;;;;;25.25;44.41;100782.16;12733786;22;96911;-79
2023/10/10 20:46:36;;;;;;;5.63;3.40;;;;;;;24.74;45.50;100785.88;12733255;22;97225;-79
2023/10/10 20:51:43;;;;;;;4.38;2.97;;;;;;;24.99;45.18;100778.28;12734135;22;96667;-79
2023/10/10 20:56:48;;;;;;;5.40;3.28;;;;;;;25.12;44.71;100778.91;12734193;22;96720;-79
2023/10/10 21:01:52;;;;;;;7.25;3.13;;;;;;;24.67;45.73;100779.34;12734303;22;96725;-79
2023/10/10 21:06:59;;;;;;;4.30;2.90;;;;;;;24.59;46.28;100781.03;12734001;22;97524;-79
2023/10/10 21:12:07;;;;;;;4.47;2.85;;;;;;;24.42;46.53;100773.59;12733495;22;97329;-79
2023/10/10 21:17:12;;;;;;;3.90;2.70;;;;;;;24.32;46.76;100775.41;12734239;22;96675;-79
2023/10/10 21:22:20;;;;;;;5.00;2.70;;;;;;;24.02;47.39;100773.53;12735380;22;97095;-79
2023/10/10 21:27:23;;;;;;;4.63;2.97;;;;;;;24.24;47.02;100781.41;12734191;22;97210;-79
2023/10/10 21:32:27;;;;;;;4.07;2.90;;;;;;;24.28;46.87;100782.03;12734222;22;96893;-79
2023/10/10 21:37:31;;;;;;;4.80;3.30;;;;;;;24.30;46.88;100782.75;12732407;22;96656;-79
2023/10/10 21:42:34;;;;;;;3.97;2.88;;;;;;;24.20;47.45;100788.06;12733243;22;96561;-79
2023/10/10 21:47:38;;;;;;;4.93;3.15;;;;;;;24.26;47.15;100789.34;12733901;22;97335;-79
2023/10/10 21:52:45;;;;;;;4.38;2.92;;;;;;;24.00;48.30;100798.84;12733234;22;97022;-79
2023/10/10 21:57:51;;;;;;;3.67;2.67;;;;;;;24.01;48.08;100782.59;12733505;22;96873;-79
2023/10/10 22:02:54;;;;;;;4.28;3.00;;;;;;;23.80;48.91;100791.66;12733524;22;96900;-79
2023/10/10 22:08:00;;;;;;;5.37;3.20;;;;;;;23.79;49.02;100784.56;12733755;22;96668;-79
2023/10/10 22:13:04;;;;;;;5.65;3.20;;;;;;;23.71;49.44;100793.28;12732935;22;97025;-79
2023/10/10 22:18:07;;;;;;;4.22;3.00;;;;;;;23.45;49.87;100786.56;12733202;22;96900;-79
2023/10/10 22:23:14;;;;;;;4.93;2.80;;;;;;;23.15;50.78;100786.41;12733483;22;97443;-79
2023/10/10 22:28:22;;;;;;;4.80;3.20;;;;;;;22.88;51.50;100784.19;12732192;22;97017;-79
2023/10/10 22:33:25;;;;;;;4.28;2.80;;;;;;;23.23;50.72;100783.97;12732476;22;96535;-79
2023/10/10 22:38:31;;;;;;;5.28;2.92;;;;;;;23.13;51.47;100780.34;12733269;22;97028;-79
2023/10/10 22:43:36;;;;;;;5.57;3.10;;;;;;;23.07;51.65;100773.66;12732100;22;96905;-79
2023/10/10 22:48:39;;;;;;;4.05;3.08;;;;;;;22.87;52.13;100770.91;12732018;22;96651;-79
2023/10/10 22:53:46;;;;;;;5.00;3.33;;;;;;;22.61;52.82;100771.16;12732455;22;97105;-79
2023/10/10 22:58:49;;;;;;;4.93;3.05;;;;;;;22.52;53.08;100776.44;12732330;22;97208;-79
2023/10/10 23:03:53;;;;;;;5.95;3.65;;;;;;;22.25;54.21;100779.47;12735500;22;96538;-79
2023/10/10 23:08:58;;;;;;;4.07;3.20;;;;;;;22.18;54.87;100786.28;12735238;22;96895;-79
2023/10/10 23:14:03;;;;;;;5.00;3.17;;;;;;;22.10;55.50;100778.03;12734901;22;97549;-79
2023/10/10 23:19:09;;;;;;;3.72;3.20;;;;;;;21.98;55.67;100768.25;12734109;22;96978;-79
2023/10/10 23:24:15;;;;;;;4.97;3.28;;;;;;;22.02;54.76;100772.38;12735345;22;96629;-79
2023/10/10 23:29:20;;;;;;;6.32;3.40;;;;;;;22.20;53.35;100770.09;12735373;22;96638;-79
2023/10/10 23:34:24;;;;;;;5.20;3.47;;;;;;;21.93;55.22;100782.94;12735209;22;96552;-79
2023/10/10 23:39:33;;;;;;;6.93;3.00;;;;;;;22.02;53.98;100772.38;12735771;22;96729;-80
2023/10/10 23:44:41;;;;;;;3.58;2.75;;;;;;;22.16;52.93;100774.84;12734766;22;96680;-79
2023/10/10 23:49:46;;;;;;;4.07;2.72;;;;;;;22.20;51.72;100779.00;12735033;22;96669;-79
2023/10/10 23:54:55;;;;;;;4.70;3.05;;;;;;;21.77;55.83;100783.28;12735544;22;96525;-79
